KLRJ/LRJ METAR and TAF weather

Enter ICAO airport designator
Station Type Date Time Source
KLRJ METAR 2020/01/17 22:35 UTC NOAA

KLRJ 172235Z AUTO 13013G24KT 1 1/2SM BR OVC008 M03/M03 A2990 RMK AO2


Station Type Date Time Source
KLRJ Decoded METAR 2020/01/17 22:35 UTC NOAA

Le Mars, Le Mars Municipal Airport, IA, United States (KLRJ) 42-46-41N 096-11-37W
Jan 17, 2020 - 05:35 PM EST / 2020.01.17 2235 UTC
Wind: from the SE (130 degrees) at 15 MPH (13 KT) gusting to 28 MPH (24 KT):0
Visibility: 1 1/2 mile(s):0
Sky conditions: overcast
Weather: mist
Temperature: 26 F (-3 C)
Windchill: 14 F (-10 C):1
Dew Point: 26 F (-3 C)
Relative Humidity: 100%
Pressure (altimeter): 29.9 in. Hg (1012 hPa)
ob: KLRJ 172235Z AUTO 13013G24KT 1 1/2SM BR OVC008 M03/M03 A2990 RMK AO2
cycle: 22

Station Type Date Time Source
KLRJ TAF UTC NOAA

Error!

Example: see airport list